Time;durP1;ratioP1;P1;durP2;ratioP2;P2;SDS_P1;SDS_P2;PMS_P1;PMS_P2;Temp;Humidity;BMP_temperature;BMP_pressure;BME280_temperature;BME280_humidity;BME280_pressure;Samples;Min_cycle;Max_cycle;Signal;HPM_P1;HPM_P2
2023/02/10 00:02:21;;;;;;;27.35;10.15;;;;;;;-3.55;58.96;101941.09;5217890;27;20058;-87
2023/02/10 00:04:47;;;;;;;23.67;8.93;;;;;;;-3.64;58.96;101933.78;5218088;27;20407;-87
2023/02/10 00:07:13;;;;;;;24.42;10.35;;;;;;;-3.51;58.96;101936.28;5218011;27;20069;-86
2023/02/10 00:09:38;;;;;;;25.67;9.38;;;;;;;-3.53;58.96;101942.09;5217622;27;20062;-86
2023/02/10 00:12:07;;;;;;;23.77;10.30;;;;;;;-3.59;58.96;101937.47;5217646;27;20050;-87
2023/02/10 00:14:33;;;;;;;23.02;9.07;;;;;;;-3.55;58.96;101942.00;5218108;27;20063;-86
2023/02/10 00:16:59;;;;;;;25.98;10.32;;;;;;;-3.66;58.95;101943.00;5253445;27;20062;-86
2023/02/10 00:19:25;;;;;;;21.27;9.65;;;;;;;-3.80;58.94;101943.81;5253162;27;20066;-86
2023/02/10 00:21:52;;;;;;;21.10;9.73;;;;;;;-3.74;58.95;101940.00;5218077;27;20099;-86
2023/02/10 00:24:17;;;;;;;29.75;9.77;;;;;;;-3.64;58.96;101945.63;5217666;27;20046;-86
2023/02/10 00:26:44;;;;;;;26.98;9.80;;;;;;;-3.91;58.94;101953.34;5217517;27;20430;-86
2023/02/10 00:29:10;;;;;;;24.20;9.93;;;;;;;-3.92;58.95;101955.81;5253350;27;20129;-86
2023/02/10 00:31:35;;;;;;;34.67;11.02;;;;;;;-3.93;58.93;101951.50;5235286;27;20074;-86
2023/02/10 00:34:01;;;;;;;23.10;9.85;;;;;;;-4.22;58.92;101948.03;5236626;27;20109;-87
2023/02/10 00:36:27;;;;;;;28.83;10.27;;;;;;;-4.00;58.93;101947.72;5235798;27;20097;-87
2023/02/10 00:38:53;;;;;;;25.48;10.40;;;;;;;-4.03;58.93;101950.91;5235822;27;20054;-89
2023/02/10 00:41:19;;;;;;;28.42;10.80;;;;;;;-3.91;58.93;101952.47;5200872;27;20068;-89
2023/02/10 00:43:45;;;;;;;23.42;10.05;;;;;;;-4.08;58.93;101942.13;5200067;27;20399;-89
2023/02/10 00:46:13;;;;;;;27.17;10.18;;;;;;;-3.93;58.93;101941.34;5218196;27;20104;-89
2023/02/10 00:48:39;;;;;;;25.17;10.43;;;;;;;-3.88;58.95;101945.03;5218266;27;20066;-88
2023/02/10 00:51:04;;;;;;;23.48;10.43;;;;;;;-4.06;58.93;101943.09;5200138;27;20060;-89
2023/02/10 00:53:30;;;;;;;25.15;9.93;;;;;;;-4.03;58.93;101942.41;5217931;27;20108;-88
2023/02/10 00:55:56;;;;;;;21.67;9.63;;;;;;;-4.19;58.92;101940.59;5235894;27;20050;-88
2023/02/10 00:58:22;;;;;;;23.25;10.10;;;;;;;-4.18;58.93;101944.91;5218275;27;20068;-88
2023/02/10 01:00:48;;;;;;;20.90;8.88;;;;;;;-4.30;58.92;101946.66;5235416;27;20050;-88
2023/02/10 01:03:14;;;;;;;26.10;10.52;;;;;;;-4.26;58.93;101945.19;5217362;27;20443;-89
2023/02/10 01:05:39;;;;;;;21.20;9.55;;;;;;;-4.19;58.93;101947.34;5235747;27;20121;-88
2023/02/10 01:08:05;;;;;;;22.33;8.93;;;;;;;-3.91;58.95;101933.00;5217477;27;20374;-85
2023/02/10 01:10:37;;;;;;;26.95;9.93;;;;;;;-4.11;58.93;101928.34;5217188;27;20050;-86
2023/02/10 01:13:03;;;;;;;24.90;9.60;;;;;;;-4.27;58.93;101926.50;5217866;27;20113;-86
2023/02/10 01:15:29;;;;;;;21.08;9.40;;;;;;;-4.34;58.92;101932.00;5235382;27;20050;-86
2023/02/10 01:17:55;;;;;;;28.75;10.15;;;;;;;-4.26;58.92;101938.44;5235227;27;20073;-86
2023/02/10 01:20:21;;;;;;;25.15;10.00;;;;;;;-4.35;58.92;101926.03;5216368;27;20118;-86
2023/02/10 01:22:46;;;;;;;26.83;10.05;;;;;;;-4.46;58.91;101927.03;5217596;27;20443;-85
2023/02/10 01:25:12;;;;;;;21.10;8.65;;;;;;;-4.45;58.91;101915.22;5199638;27;20077;-86
2023/02/10 01:27:37;;;;;;;25.88;10.02;;;;;;;-4.47;58.91;101917.66;5217417;27;20068;-85
2023/02/10 01:30:04;;;;;;;35.92;13.23;;;;;;;-4.39;58.91;101915.59;5217829;27;20142;-86
2023/02/10 01:32:29;;;;;;;28.80;12.05;;;;;;;-4.41;58.92;101914.63;5235168;27;20050;-85
2023/02/10 01:34:54;;;;;;;40.10;14.82;;;;;;;-4.18;58.92;101919.47;5217367;27;20074;-86
2023/02/10 01:37:21;;;;;;;46.92;16.80;;;;;;;-4.32;58.92;101912.63;5200047;27;20074;-86
2023/02/10 01:39:47;;;;;;;29.12;11.38;;;;;;;-4.36;58.91;101916.66;5234912;27;20098;-85
2023/02/10 01:42:16;;;;;;;22.27;9.32;;;;;;;-4.10;58.93;101914.84;5217356;27;20145;-86
2023/02/10 01:44:41;;;;;;;24.10;8.60;;;;;;;-4.30;58.91;101916.16;5252807;27;20077;-85
2023/02/10 01:47:07;;;;;;;23.92;8.88;;;;;;;-4.37;58.91;101924.19;5234793;27;20069;-85
2023/02/10 01:49:57;;;;;;;25.15;8.80;;;;;;;-4.27;58.92;101920.53;5231209;27;98472;-85
2023/02/10 01:52:23;;;;;;;27.92;9.70;;;;;;;-4.20;58.93;101918.50;5235191;27;20631;-85
2023/02/10 01:54:55;;;;;;;25.15;9.98;;;;;;;-4.34;58.92;101917.63;5218747;27;20411;-86
2023/02/10 01:57:22;;;;;;;29.83;9.77;;;;;;;-4.46;58.91;101918.53;5235570;27;20051;-85
2023/02/10 01:59:48;;;;;;;20.45;9.40;;;;;;;-4.37;58.91;101914.03;5235907;27;20120;-85
2023/02/10 02:02:13;;;;;;;24.48;9.20;;;;;;;-4.67;58.90;101908.78;5237448;27;20042;-86
2023/02/10 02:04:52;;;;;;;25.85;10.35;;;;;;;-4.64;58.89;101914.06;5200379;27;20061;-85
2023/02/10 02:07:18;;;;;;;25.10;10.43;;;;;;;-4.67;58.90;101913.84;5217945;27;20062;-85
2023/02/10 02:09:44;;;;;;;29.63;10.70;;;;;;;-4.61;58.90;101917.56;5218104;27;20138;-85
2023/02/10 02:12:21;;;;;;;41.65;13.05;;;;;;;-4.62;58.90;101913.25;5217936;27;20113;-85
2023/02/10 02:14:50;;;;;;;29.95;11.40;;;;;;;-4.58;58.90;101910.12;5235500;27;20113;-86
2023/02/10 02:17:28;;;;;;;28.40;11.02;;;;;;;-4.58;58.90;101912.66;5237217;27;20068;-85
2023/02/10 02:23:05;;;;;;;44.83;15.70;;;;;;;-4.38;58.91;101912.25;5237020;27;20064;-85
2023/02/10 02:25:55;;;;;;;39.00;14.23;;;;;;;-4.26;58.92;101915.56;5237016;27;20399;-85
2023/02/10 02:28:27;;;;;;;25.73;10.95;;;;;;;-4.38;58.91;101909.72;5235349;27;20057;-85
2023/02/10 02:31:23;;;;;;;21.98;8.77;;;;;;;-4.34;58.92;101911.66;5235282;27;20051;-85
2023/02/10 02:33:52;;;;;;;22.30;9.20;;;;;;;-4.50;58.91;101912.34;5219267;27;20038;-85
2023/02/10 02:36:20;;;;;;;24.08;9.07;;;;;;;-4.58;58.90;101912.66;5235685;27;20796;-85
2023/02/10 02:38:46;;;;;;;22.25;9.45;;;;;;;-4.74;58.89;101901.53;5218145;27;20054;-87
2023/02/10 02:41:12;;;;;;;23.02;8.68;;;;;;;-4.74;58.89;101906.59;5236975;27;20086;-87
2023/02/10 02:43:38;;;;;;;21.85;8.65;;;;;;;-4.70;58.89;101898.41;5217368;27;20062;-87
2023/02/10 02:46:22;;;;;;;19.08;8.10;;;;;;;-4.58;58.90;101902.50;5235690;27;20054;-87
2023/02/10 02:49:23;;;;;;;22.95;8.98;;;;;;;-4.68;58.89;101907.03;5235943;27;20058;-87
2023/02/10 02:52:05;;;;;;;22.37;9.20;;;;;;;-4.67;58.90;101903.69;5213638;27;20053;-87
2023/02/10 02:54:41;;;;;;;24.77;9.95;;;;;;;-4.54;58.91;101900.25;5235451;27;20022;-87
2023/02/10 02:57:16;;;;;;;26.73;7.93;;;;;;;-4.51;58.90;101897.91;5234419;27;20104;-87
2023/02/10 02:59:50;;;;;;;25.52;8.15;;;;;;;-4.56;58.91;101900.94;5236133;27;20080;-87
2023/02/10 03:02:16;;;;;;;23.67;8.45;;;;;;;-4.64;58.89;101892.84;5218401;27;20084;-88
2023/02/10 03:04:42;;;;;;;22.85;8.38;;;;;;;-4.51;58.90;101897.91;5218080;27;20050;-87
2023/02/10 03:07:07;;;;;;;22.95;8.77;;;;;;;-4.66;58.89;101902.91;5219334;27;20121;-87
2023/02/10 03:09:33;;;;;;;21.77;8.68;;;;;;;-4.70;58.89;101902.62;5218435;27;20080;-88
2023/02/10 03:11:58;;;;;;;25.25;8.75;;;;;;;-4.83;58.89;101906.03;5217565;27;20102;-87
2023/02/10 03:14:24;;;;;;;29.23;10.40;;;;;;;-4.74;58.89;101911.69;5217779;27;20050;-87
2023/02/10 03:16:49;;;;;;;25.80;10.10;;;;;;;-4.88;58.88;101909.94;5200171;27;20062;-87
2023/02/10 03:19:15;;;;;;;21.48;8.18;;;;;;;-4.65;58.89;101901.25;5217862;27;20125;-86
2023/02/10 03:21:40;;;;;;;24.35;9.75;;;;;;;-4.43;58.90;101896.72;5217741;27;20102;-86
2023/02/10 03:24:06;;;;;;;22.42;9.48;;;;;;;-4.66;58.90;101895.28;5217996;27;20061;-87
2023/02/10 03:26:31;;;;;;;25.70;9.52;;;;;;;-4.81;58.88;101899.38;5217714;27;20058;-86
2023/02/10 03:28:56;;;;;;;24.23;9.18;;;;;;;-4.82;58.89;101902.69;5217936;27;20101;-86
2023/02/10 03:31:22;;;;;;;28.30;9.88;;;;;;;-4.65;58.90;101906.34;5217971;27;20098;-86
2023/02/10 03:33:48;;;;;;;22.37;9.27;;;;;;;-4.82;58.89;101901.81;5217771;27;20724;-86
2023/02/10 03:36:13;;;;;;;26.60;9.52;;;;;;;-4.87;58.88;101905.75;5217847;27;20066;-86
2023/02/10 03:38:39;;;;;;;25.25;8.45;;;;;;;-4.82;58.89;101907.78;5218064;27;20072;-84
2023/02/10 03:41:04;;;;;;;23.87;8.30;;;;;;;-4.93;58.87;101911.31;5217781;27;20073;-87
2023/02/10 03:43:30;;;;;;;26.73;9.65;;;;;;;-4.95;58.87;101895.97;5217951;27;20320;-85
2023/02/10 03:45:58;;;;;;;20.88;9.00;;;;;;;-4.82;58.88;101906.91;5218039;27;20070;-86
2023/02/10 03:48:26;;;;;;;25.92;9.25;;;;;;;-5.09;58.87;101901.81;5218518;27;20066;-86
2023/02/10 03:50:51;;;;;;;22.30;8.93;;;;;;;-5.18;58.86;101901.22;5218244;27;20065;-85
2023/02/10 03:53:17;;;;;;;26.67;8.82;;;;;;;-5.11;58.87;101898.28;5217487;27;20058;-86
2023/02/10 03:55:42;;;;;;;23.27;9.63;;;;;;;-5.21;58.87;101901.00;5217368;27;20244;-85
2023/02/10 03:58:08;;;;;;;24.77;8.95;;;;;;;-5.21;58.86;101895.91;5217792;27;20067;-85
2023/02/10 04:00:33;;;;;;;22.98;8.32;;;;;;;-5.12;58.87;101893.12;5217562;27;20086;-85
2023/02/10 04:02:58;;;;;;;23.05;10.02;;;;;;;-4.95;58.87;101884.94;5217752;27;20101;-86
2023/02/10 04:05:24;;;;;;;26.95;9.35;;;;;;;-5.00;58.87;101881.19;5200299;27;20078;-86
2023/02/10 04:07:49;;;;;;;28.85;9.68;;;;;;;-5.00;58.87;101878.66;5217985;27;20067;-85
2023/02/10 04:10:15;;;;;;;29.08;9.15;;;;;;;-4.96;58.88;101875.56;5217739;27;20359;-85
2023/02/10 04:12:40;;;;;;;21.55;9.23;;;;;;;-5.03;58.87;101873.38;5217523;27;20439;-85
2023/02/10 04:15:06;;;;;;;26.52;9.15;;;;;;;-5.03;58.87;101870.84;5216964;27;20117;-86
2023/02/10 04:17:31;;;;;;;26.35;9.43;;;;;;;-5.05;58.87;101877.50;5218362;27;20062;-86
2023/02/10 04:19:57;;;;;;;24.27;9.70;;;;;;;-4.87;58.88;101871.06;5217116;27;20109;-86
2023/02/10 04:22:22;;;;;;;23.48;10.02;;;;;;;-5.06;58.88;101875.72;5217060;27;20105;-86
2023/02/10 04:24:48;;;;;;;24.92;9.40;;;;;;;-4.92;58.89;101869.00;5199963;27;20317;-85
2023/02/10 04:27:13;;;;;;;24.08;8.98;;;;;;;-5.13;58.87;101877.00;5217862;27;20109;-86
2023/02/10 04:29:40;;;;;;;24.37;8.95;;;;;;;-4.91;58.89;101875.84;5217741;27;20057;-84
2023/02/10 04:32:06;;;;;;;30.33;9.43;;;;;;;-4.86;58.88;101879.56;5218250;27;20588;-85
2023/02/10 04:34:31;;;;;;;31.02;11.50;;;;;;;-4.90;58.88;101882.69;5217476;27;20081;-86
2023/02/10 04:36:57;;;;;;;30.77;11.25;;;;;;;-4.89;58.88;101870.09;5199713;27;20403;-85
2023/02/10 04:39:22;;;;;;;30.15;10.43;;;;;;;-4.99;58.88;101873.69;5199037;27;20069;-84
2023/02/10 04:41:48;;;;;;;23.85;9.02;;;;;;;-5.00;58.88;101879.53;5200019;27;20113;-85
2023/02/10 04:44:13;;;;;;;23.87;10.00;;;;;;;-4.91;58.88;101886.88;5217393;27;20467;-85
2023/02/10 04:46:39;;;;;;;25.40;9.07;;;;;;;-5.08;58.87;101882.38;5199861;27;20351;-85
2023/02/10 04:49:04;;;;;;;26.70;9.75;;;;;;;-5.18;58.87;101880.91;5217321;27;20348;-85
2023/02/10 04:51:29;;;;;;;25.25;9.98;;;;;;;-5.12;58.87;101890.56;5217509;27;20462;-85
2023/02/10 04:53:55;;;;;;;24.45;9.45;;;;;;;-5.01;58.87;101897.22;5217334;27;20080;-85
2023/02/10 04:56:20;;;;;;;24.05;9.98;;;;;;;-4.85;58.88;101891.47;5217665;27;20077;-85
2023/02/10 04:58:46;;;;;;;27.62;9.70;;;;;;;-4.89;58.88;101895.47;5217723;27;20439;-86
2023/02/10 05:01:11;;;;;;;22.60;9.18;;;;;;;-5.12;58.87;101911.78;5217225;27;20101;-86
2023/02/10 05:03:37;;;;;;;26.83;8.38;;;;;;;-4.83;58.89;101910.22;5217532;27;20149;-87
2023/02/10 05:06:08;;;;;;;25.25;9.07;;;;;;;-4.95;58.88;101915.41;5217138;27;20070;-86
2023/02/10 05:08:33;;;;;;;23.92;8.77;;;;;;;-4.97;58.87;101912.78;5217610;27;20019;-86
2023/02/10 05:10:59;;;;;;;23.48;9.38;;;;;;;-4.88;58.88;101915.03;5217523;27;20060;-87
2023/02/10 05:13:24;;;;;;;24.35;9.10;;;;;;;-4.91;58.88;101909.75;5217468;27;20050;-87
2023/02/10 05:15:50;;;;;;;30.58;9.68;;;;;;;-4.72;58.89;101910.16;5217855;27;20089;-87
2023/02/10 05:18:15;;;;;;;25.58;9.00;;;;;;;-4.72;58.89;101910.16;5217432;27;20392;-87
2023/02/10 05:20:41;;;;;;;22.98;9.48;;;;;;;-5.03;58.87;101916.56;5217035;27;20411;-86
2023/02/10 05:23:07;;;;;;;27.52;9.52;;;;;;;-5.07;58.87;101918.03;5217161;27;20133;-86
2023/02/10 05:25:33;;;;;;;22.70;9.82;;;;;;;-5.27;58.86;101925.97;5217935;27;20061;-86
2023/02/10 05:27:58;;;;;;;30.90;10.98;;;;;;;-5.00;58.87;101914.22;5217483;27;20108;-86
2023/02/10 05:30:23;;;;;;;23.25;8.77;;;;;;;-4.96;58.87;101924.69;5200725;27;20117;-84
2023/02/10 05:32:49;;;;;;;30.20;10.18;;;;;;;-4.86;58.88;101920.19;5217530;27;20062;-87
2023/02/10 05:35:14;;;;;;;23.38;9.02;;;;;;;-4.84;58.89;101921.16;5199828;27;20093;-85
2023/02/10 05:37:40;;;;;;;24.42;10.07;;;;;;;-4.89;58.88;101918.34;5217797;27;20066;-85
2023/02/10 05:40:06;;;;;;;23.87;8.27;;;;;;;-4.87;58.88;101926.06;5200088;27;20057;-84
2023/02/10 05:42:31;;;;;;;25.20;8.88;;;;;;;-5.03;58.87;101924.16;5217229;27;20073;-87
2023/02/10 05:44:56;;;;;;;24.77;8.82;;;;;;;-4.88;58.88;101919.22;5217722;27;20085;-87
2023/02/10 05:47:22;;;;;;;25.58;9.07;;;;;;;-4.93;58.88;101934.16;5217428;27;20236;-87
2023/02/10 05:49:47;;;;;;;28.27;9.65;;;;;;;-4.69;58.89;101945.91;5217437;27;20046;-88
2023/02/10 05:52:13;;;;;;;27.67;9.50;;;;;;;-4.65;58.89;101935.16;5218213;27;20062;-87
2023/02/10 05:54:40;;;;;;;24.48;8.50;;;;;;;-4.79;58.88;101945.19;5218090;27;20073;-87
2023/02/10 05:57:05;;;;;;;30.33;8.93;;;;;;;-4.74;58.89;101944.72;5218532;27;20050;-87
2023/02/10 05:59:31;;;;;;;25.62;9.32;;;;;;;-4.87;58.88;101939.63;5218147;27;20064;-87
2023/02/10 06:01:56;;;;;;;29.00;10.10;;;;;;;-4.82;58.89;101935.72;5217220;27;20128;-87
2023/02/10 06:04:22;;;;;;;24.65;10.18;;;;;;;-4.73;58.89;101928.72;5200448;27;20054;-86
2023/02/10 06:06:47;;;;;;;28.27;10.27;;;;;;;-4.72;58.89;101927.94;5200563;27;20055;-87
2023/02/10 06:09:12;;;;;;;33.05;12.18;;;;;;;-4.82;58.88;101933.19;5200366;27;20101;-87
2023/02/10 06:11:38;;;;;;;25.52;10.90;;;;;;;-4.80;58.88;101941.78;5200218;27;20077;-86
2023/02/10 06:14:04;;;;;;;29.55;10.93;;;;;;;-4.77;58.89;101941.09;5200317;27;20059;-87
2023/02/10 06:16:29;;;;;;;26.48;10.45;;;;;;;-4.76;58.89;101940.31;5200503;27;20078;-86
2023/02/10 06:18:55;;;;;;;34.58;12.10;;;;;;;-4.71;58.89;101923.72;5200216;27;20069;-86
2023/02/10 06:21:22;;;;;;;51.15;18.23;;;;;;;-4.68;58.89;101922.25;5199720;27;20125;-87
2023/02/10 06:23:48;;;;;;;32.90;13.65;;;;;;;-4.65;58.89;101925.00;5200736;27;20702;-86
2023/02/10 06:26:13;;;;;;;25.80;10.18;;;;;;;-4.43;58.90;101934.87;5199746;27;20081;-86
2023/02/10 06:28:39;;;;;;;32.45;12.40;;;;;;;-4.12;58.93;101940.19;5199859;27;20323;-87
2023/02/10 06:31:04;;;;;;;30.85;11.45;;;;;;;-4.11;58.93;101925.81;5199527;27;20125;-86
2023/02/10 06:33:30;;;;;;;39.95;14.23;;;;;;;-4.36;58.91;101937.00;5199795;27;20116;-87
2023/02/10 06:35:55;;;;;;;38.13;12.98;;;;;;;-4.19;58.93;101940.59;5200060;27;20087;-87
2023/02/10 06:38:23;;;;;;;34.40;11.98;;;;;;;-4.29;58.92;101957.72;5200110;27;20050;-86
2023/02/10 06:40:48;;;;;;;27.02;9.93;;;;;;;-4.24;58.92;101952.16;5199920;27;20054;-87
2023/02/10 06:43:14;;;;;;;30.33;10.20;;;;;;;-4.37;58.91;101969.94;5217914;27;20104;-87
2023/02/10 06:45:39;;;;;;;23.92;10.07;;;;;;;-4.68;58.89;101972.19;5200556;27;20072;-88
2023/02/10 06:48:05;;;;;;;32.33;11.15;;;;;;;-4.80;58.89;101981.56;5200601;27;20046;-88
2023/02/10 06:50:30;;;;;;;27.05;10.45;;;;;;;-4.69;58.89;101986.56;5200553;27;20434;-87
2023/02/10 06:52:56;;;;;;;30.70;10.63;;;;;;;-4.67;58.90;101989.22;5200510;27;20109;-87
2023/02/10 06:55:21;;;;;;;26.67;10.57;;;;;;;-4.46;58.91;101984.62;5200701;27;20094;-88
2023/02/10 06:57:47;;;;;;;29.58;10.15;;;;;;;-4.41;58.91;101986.69;5200149;27;20085;-87
2023/02/10 07:00:13;;;;;;;32.90;11.07;;;;;;;-4.20;58.92;101976.09;5200351;27;20317;-87
2023/02/10 07:02:38;;;;;;;24.37;10.75;;;;;;;-4.10;58.93;101964.06;5218280;27;20076;-87
2023/02/10 07:05:06;;;;;;;35.88;11.52;;;;;;;-3.83;58.95;101969.06;5200643;27;20361;-86
2023/02/10 07:07:32;;;;;;;29.02;11.15;;;;;;;-3.74;58.95;101972.22;5201014;27;20096;-85
2023/02/10 07:09:57;;;;;;;35.15;12.07;;;;;;;-3.77;58.96;101969.47;5200667;27;20398;-88
2023/02/10 07:12:24;;;;;;;34.60;12.95;;;;;;;-3.46;58.97;101973.06;5200607;27;20068;-87
2023/02/10 07:14:50;;;;;;;30.75;11.63;;;;;;;-3.44;58.97;101971.50;5218792;27;20101;-87
2023/02/10 07:17:16;;;;;;;26.67;10.93;;;;;;;-3.07;58.99;101973.69;5200701;27;20453;-88
2023/02/10 07:19:42;;;;;;;29.83;11.57;;;;;;;-2.93;59.00;101975.34;5200255;27;20066;-86
2023/02/10 07:22:07;;;;;;;34.20;12.10;;;;;;;-2.85;59.00;101979.22;5218096;27;20065;-87
2023/02/10 07:24:33;;;;;;;27.08;11.10;;;;;;;-2.81;59.01;101978.63;5200491;27;20105;-87
2023/02/10 07:26:58;;;;;;;29.55;12.20;;;;;;;-2.57;59.02;101978.25;5200174;27;20058;-86
2023/02/10 07:29:24;;;;;;;29.20;11.43;;;;;;;-2.40;59.02;101977.50;5200557;27;20084;-87
2023/02/10 07:31:49;;;;;;;32.83;12.37;;;;;;;-2.25;59.04;101974.94;5200229;27;20066;-87
2023/02/10 07:34:14;;;;;;;25.48;11.73;;;;;;;-2.10;59.06;101970.69;5200432;27;20098;-88
2023/02/10 07:36:40;;;;;;;30.45;11.85;;;;;;;-1.75;59.06;101972.56;5200616;27;20065;-88
2023/02/10 07:39:06;;;;;;;27.48;10.95;;;;;;;-1.90;59.06;101964.97;5199905;27;20093;-87
2023/02/10 07:41:32;;;;;;;29.92;11.82;;;;;;;-1.78;59.07;101958.78;5218086;27;20703;-88
2023/02/10 07:43:57;;;;;;;28.08;11.30;;;;;;;-1.60;59.07;101954.63;5200052;27;20062;-88
2023/02/10 07:46:22;;;;;;;30.58;12.48;;;;;;;-1.62;59.07;101946.91;5200304;27;20058;-88
2023/02/10 07:48:48;;;;;;;28.33;12.52;;;;;;;-1.38;59.08;101949.84;5199811;27;20443;-86
2023/02/10 07:51:13;;;;;;;30.42;13.18;;;;;;;-1.09;59.10;101943.66;5200059;27;20701;-87
2023/02/10 07:53:39;;;;;;;37.92;14.77;;;;;;;-0.84;59.13;101947.41;5200187;27;20097;-88
2023/02/10 07:56:05;;;;;;;31.20;13.45;;;;;;;-0.75;59.13;101950.41;5200405;27;20109;-88
2023/02/10 07:58:31;;;;;;;36.78;15.85;;;;;;;-0.48;59.14;101955.97;5218064;27;20366;-88
2023/02/10 08:00:56;;;;;;;34.45;15.50;;;;;;;-0.25;59.16;101957.94;5217640;27;20066;-86
2023/02/10 08:03:22;;;;;;;36.15;15.13;;;;;;;-0.32;59.15;101951.69;5199776;27;20402;-87
2023/02/10 08:05:48;;;;;;;39.42;15.40;;;;;;;-0.22;59.15;101958.13;5199979;27;20062;-87
2023/02/10 08:08:14;;;;;;;40.72;16.87;;;;;;;0.06;59.18;101952.59;5200571;27;20080;-87
2023/02/10 08:10:39;;;;;;;50.78;19.48;;;;;;;0.29;59.18;101959.63;5200342;27;20114;-87
2023/02/10 08:13:05;;;;;;;37.00;15.23;;;;;;;0.20;59.18;101963.44;5200394;27;20098;-88
2023/02/10 08:15:30;;;;;;;37.17;15.65;;;;;;;0.26;59.19;101967.19;5200275;27;20105;-87
2023/02/10 08:17:58;;;;;;;33.35;15.00;;;;;;;0.49;59.20;101963.09;5200265;27;20086;-88
2023/02/10 08:20:24;;;;;;;36.05;14.13;;;;;;;0.48;59.20;101969.03;5217667;27;20124;-87
2023/02/10 08:22:53;;;;;;;34.35;15.35;;;;;;;0.78;59.22;101971.16;5235486;27;20391;-87
2023/02/10 08:25:19;;;;;;;;;;;;;;;0.73;59.21;101970.97;5200501;27;20068;-88
2023/02/10 08:27:44;;;;;;;34.77;13.63;;;;;;;0.84;59.22;101971.41;5235856;27;19985;-88
2023/02/10 08:30:11;;;;;;;35.53;14.45;;;;;;;0.76;59.22;101968.53;5200372;27;20198;-89
2023/02/10 08:32:37;;;;;;;33.78;14.05;;;;;;;0.77;59.22;101970.28;5200717;27;20738;-88
2023/02/10 08:35:03;;;;;;;40.33;15.60;;;;;;;0.88;59.22;101968.16;5200561;27;20062;-88
2023/02/10 08:37:28;;;;;;;33.70;16.02;;;;;;;0.90;59.23;101964.84;5200141;27;20062;-88
2023/02/10 08:39:53;;;;;;;80.30;31.23;;;;;;;1.08;59.23;101971.56;5200290;27;20101;-87
2023/02/10 08:42:19;;;;;;;46.37;18.35;;;;;;;1.20;59.24;101965.28;5199931;27;20096;-86
2023/02/10 08:44:44;;;;;;;39.67;15.65;;;;;;;1.32;59.24;101962.31;5198599;27;20063;-87
2023/02/10 08:47:13;;;;;;;36.65;16.23;;;;;;;1.52;59.26;101966.56;5199187;27;20357;-86
2023/02/10 08:49:38;;;;;;;37.97;14.23;;;;;;;1.67;59.27;101968.00;5200470;27;20101;-87
2023/02/10 08:52:04;;;;;;;36.25;15.23;;;;;;;1.83;59.28;101973.78;5199666;27;20096;-87
2023/02/10 08:54:29;;;;;;;34.63;13.25;;;;;;;1.81;59.28;101966.84;5199288;27;20114;-87
2023/02/10 08:56:55;;;;;;;28.00;12.52;;;;;;;2.04;59.29;101968.59;5199373;27;20070;-88
2023/02/10 08:59:20;;;;;;;29.98;13.65;;;;;;;2.25;59.30;101967.66;5199141;27;20420;-87
2023/02/10 09:01:46;;;;;;;29.58;11.85;;;;;;;2.26;59.30;101962.59;5199433;27;20437;-89
2023/02/10 09:04:11;;;;;;;21.83;10.70;;;;;;;2.45;59.32;101951.28;5199227;27;20072;-89
2023/02/10 09:06:43;;;;;;;23.15;10.65;;;;;;;2.43;59.32;101955.50;5199598;27;20169;-89
2023/02/10 09:09:12;;;;;;;22.65;10.23;;;;;;;2.42;59.32;101952.06;5200671;27;20524;-88
2023/02/10 09:11:38;;;;;;;22.60;9.70;;;;;;;2.55;59.32;101957.62;5199113;27;20070;-90
2023/02/10 09:14:03;;;;;;;24.02;10.43;;;;;;;2.91;59.33;101950.34;5217263;27;20095;-89
2023/02/10 09:16:29;;;;;;;21.48;10.45;;;;;;;3.06;59.35;101950.84;5198787;27;20335;-88
2023/02/10 09:18:54;;;;;;;26.45;11.00;;;;;;;3.28;59.36;101950.72;5216424;27;20066;-89
2023/02/10 09:21:20;;;;;;;27.37;11.80;;;;;;;3.06;59.34;101944.00;5216756;27;20439;-88
2023/02/10 09:23:45;;;;;;;26.37;11.20;;;;;;;3.24;59.35;101937.72;5199500;27;20076;-87
2023/02/10 09:26:11;;;;;;;25.83;12.20;;;;;;;3.34;59.37;101940.66;5199691;27;20084;-88
2023/02/10 09:28:37;;;;;;;25.33;12.07;;;;;;;3.36;59.36;101951.87;5199246;27;20066;-88
2023/02/10 09:31:06;;;;;;;25.98;10.25;;;;;;;3.60;59.38;101951.78;5199288;27;20423;-89
2023/02/10 09:33:31;;;;;;;22.67;10.82;;;;;;;3.28;59.36;101949.84;5216291;27;20050;-89
2023/02/10 09:35:57;;;;;;;25.08;11.23;;;;;;;3.59;59.38;101947.44;5199270;27;20124;-88
2023/02/10 09:38:22;;;;;;;23.77;10.88;;;;;;;3.73;59.38;101941.84;5216545;27;20391;-87
2023/02/10 09:41:15;;;;;;;37.55;11.45;;;;;;;3.84;59.39;101943.94;5199049;27;20365;-89
2023/02/10 09:43:47;;;;;;;26.25;10.70;;;;;;;3.74;59.39;101938.44;5200342;27;20050;-89
2023/02/10 09:46:35;;;;;;;25.17;11.38;;;;;;;3.86;59.40;101936.25;5233490;27;20424;-89
2023/02/10 09:49:10;;;;;;;24.48;10.85;;;;;;;3.94;59.39;101939.91;5219415;27;20121;-88
2023/02/10 09:51:47;;;;;;;26.48;12.05;;;;;;;4.09;59.40;101945.53;5234800;27;20073;-88
2023/02/10 09:54:12;;;;;;;22.90;12.02;;;;;;;4.28;59.42;101952.09;5234551;27;20054;-88
2023/02/10 09:56:38;;;;;;;26.65;11.63;;;;;;;4.37;59.42;101952.34;5199343;27;20433;-90
2023/02/10 09:59:04;;;;;;;24.42;11.20;;;;;;;4.52;59.43;101951.94;5215734;27;20501;-88
2023/02/10 10:01:37;;;;;;;21.48;10.70;;;;;;;4.65;59.44;101953.13;5198172;27;20096;-88
2023/02/10 10:04:07;;;;;;;20.23;10.20;;;;;;;4.72;59.45;101940.41;5198809;27;20058;-87
2023/02/10 10:06:34;;;;;;;21.35;9.13;;;;;;;4.75;59.45;101931.91;5199001;27;20062;-87
2023/02/10 10:08:59;;;;;;;19.67;9.00;;;;;;;4.90;59.45;101935.75;5216229;27;20069;-87
2023/02/10 10:11:42;;;;;;;18.30;8.98;;;;;;;5.13;59.47;101926.00;5234364;27;20615;-86
2023/02/10 10:14:24;;;;;;;19.33;9.52;;;;;;;5.12;59.47;101924.28;5218563;27;20062;-87
2023/02/10 10:17:15;;;;;;;18.10;8.70;;;;;;;5.15;59.46;101920.88;5217952;27;20774;-88
2023/02/10 10:19:49;;;;;;;19.75;9.00;;;;;;;5.23;59.47;101920.25;5235256;27;20061;-88
2023/02/10 10:22:37;;;;;;;22.77;9.13;;;;;;;5.26;59.48;101926.34;5235391;27;20054;-88
2023/02/10 10:25:18;;;;;;;28.20;10.95;;;;;;;5.47;59.48;101939.75;5217426;27;20050;-88
2023/02/10 10:28:04;;;;;;;20.17;9.60;;;;;;;5.57;59.49;101928.81;5235303;27;20478;-89
2023/02/10 10:30:47;;;;;;;22.60;9.48;;;;;;;5.54;59.49;101928.72;5219709;27;20054;-88
2023/02/10 10:33:20;;;;;;;18.15;8.52;;;;;;;5.65;59.49;101918.63;5217876;27;20062;-87
2023/02/10 10:35:45;;;;;;;18.48;8.88;;;;;;;5.72;59.50;101925.69;5217582;27;20415;-88
2023/02/10 10:38:17;;;;;;;23.05;9.90;;;;;;;5.40;59.48;101933.56;5217779;27;20076;-88
2023/02/10 10:40:43;;;;;;;21.52;9.77;;;;;;;5.34;59.48;101933.41;5217884;27;20066;-87
2023/02/10 10:43:09;;;;;;;21.65;9.77;;;;;;;5.38;59.47;101932.66;5217541;27;20058;-87
2023/02/10 10:45:40;;;;;;;23.27;10.18;;;;;;;5.48;59.49;101923.44;5217360;27;20703;-87
2023/02/10 10:48:26;;;;;;;22.15;10.25;;;;;;;5.63;59.49;101916.00;5200206;27;20081;-88
2023/02/10 10:50:53;;;;;;;21.30;9.68;;;;;;;5.69;59.50;101911.00;5202918;27;20076;-88
2023/02/10 10:53:39;;;;;;;22.77;10.82;;;;;;;5.74;59.49;101906.81;5217422;27;20072;-86
2023/02/10 10:56:06;;;;;;;23.08;11.05;;;;;;;5.93;59.51;101895.19;5217039;27;20088;-85
2023/02/10 10:58:37;;;;;;;21.58;10.57;;;;;;;6.03;59.52;101893.66;5199993;27;20423;-87
2023/02/10 11:01:03;;;;;;;30.85;9.82;;;;;;;6.16;59.53;101885.34;5199481;27;20069;-87
2023/02/10 11:03:29;;;;;;;21.08;9.07;;;;;;;6.35;59.54;101879.66;5217143;27;20068;-87
2023/02/10 11:06:08;;;;;;;21.87;8.63;;;;;;;6.29;59.53;101878.66;5217147;27;20113;-88
2023/02/10 11:08:38;;;;;;;19.55;8.23;;;;;;;6.32;59.53;101863.22;5217369;27;20088;-88
2023/02/10 11:11:03;;;;;;;;;;;;;;;6.40;59.54;101857.34;5218688;27;20066;-88
2023/02/10 11:13:30;;;;;;;16.85;8.55;;;;;;;6.56;59.54;101857.63;5235164;27;20284;-86
2023/02/10 11:16:04;;;;;;;16.58;8.27;;;;;;;6.68;59.56;101847.50;5217403;27;20521;-86
2023/02/10 11:18:29;;;;;;;17.02;8.57;;;;;;;6.69;59.55;101849.25;5217433;27;20079;-88
2023/02/10 11:20:57;;;;;;;19.70;9.88;;;;;;;6.75;59.56;101846.75;5217190;27;20069;-86
2023/02/10 11:23:23;;;;;;;20.37;8.48;;;;;;;6.77;59.56;101845.06;5217943;27;20069;-86